sensor_id;sensor_type;location;lat;lon;timestamp;P1;durP1;ratioP1;P2;durP2;ratioP2
41436;SDS011;27178;49.460;10.850;2024-03-02T00:01:37;16.92;;;15.13;;
41436;SDS011;27178;49.460;10.850;2024-03-02T00:04:06;17.73;;;15.93;;
41436;SDS011;27178;49.460;10.850;2024-03-02T00:06:35;17.33;;;15.52;;
41436;SDS011;27178;49.460;10.850;2024-03-02T00:09:04;19.10;;;15.57;;
41436;SDS011;27178;49.460;10.850;2024-03-02T00:11:34;17.63;;;15.65;;
41436;SDS011;27178;49.460;10.850;2024-03-02T00:14:05;17.42;;;15.63;;
41436;SDS011;27178;49.460;10.850;2024-03-02T00:16:33;17.08;;;15.38;;
41436;SDS011;27178;49.460;10.850;2024-03-02T00:19:02;15.95;;;14.38;;
41436;SDS011;27178;49.460;10.850;2024-03-02T00:21:32;16.63;;;14.90;;
41436;SDS011;27178;49.460;10.850;2024-03-02T00:24:00;18.95;;;16.80;;
41436;SDS011;27178;49.460;10.850;2024-03-02T00:26:34;16.58;;;14.98;;
41436;SDS011;27178;49.460;10.850;2024-03-02T00:29:02;17.30;;;15.60;;
41436;SDS011;27178;49.460;10.850;2024-03-02T00:31:33;17.52;;;14.65;;
41436;SDS011;27178;49.460;10.850;2024-03-02T00:34:01;17.02;;;14.95;;
41436;SDS011;27178;49.460;10.850;2024-03-02T00:36:34;16.88;;;15.10;;
41436;SDS011;27178;49.460;10.850;2024-03-02T00:39:03;15.88;;;14.18;;
41436;SDS011;27178;49.460;10.850;2024-03-02T00:41:34;15.90;;;14.40;;
41436;SDS011;27178;49.460;10.850;2024-03-02T00:44:03;17.05;;;15.25;;
41436;SDS011;27178;49.460;10.850;2024-03-02T00:46:34;16.33;;;14.73;;
41436;SDS011;27178;49.460;10.850;2024-03-02T00:49:04;16.73;;;14.98;;
41436;SDS011;27178;49.460;10.850;2024-03-02T00:51:34;16.92;;;14.70;;
41436;SDS011;27178;49.460;10.850;2024-03-02T00:54:04;18.77;;;16.77;;
41436;SDS011;27178;49.460;10.850;2024-03-02T00:56:34;15.60;;;13.95;;
41436;SDS011;27178;49.460;10.850;2024-03-02T00:59:02;17.50;;;15.60;;
41436;SDS011;27178;49.460;10.850;2024-03-02T01:01:32;16.55;;;14.77;;
41436;SDS011;27178;49.460;10.850;2024-03-02T01:04:00;17.40;;;14.77;;
41436;SDS011;27178;49.460;10.850;2024-03-02T01:06:29;15.40;;;13.90;;
41436;SDS011;27178;49.460;10.850;2024-03-02T01:08:58;17.30;;;15.55;;
41436;SDS011;27178;49.460;10.850;2024-03-02T01:11:26;15.38;;;13.35;;
41436;SDS011;27178;49.460;10.850;2024-03-02T01:13:55;14.77;;;13.25;;
41436;SDS011;27178;49.460;10.850;2024-03-02T01:16:24;17.95;;;15.57;;
41436;SDS011;27178;49.460;10.850;2024-03-02T01:18:53;15.95;;;14.27;;
41436;SDS011;27178;49.460;10.850;2024-03-02T01:21:21;16.48;;;14.77;;
41436;SDS011;27178;49.460;10.850;2024-03-02T01:23:49;16.88;;;15.00;;
41436;SDS011;27178;49.460;10.850;2024-03-02T01:26:17;15.48;;;13.98;;
41436;SDS011;27178;49.460;10.850;2024-03-02T01:28:46;16.90;;;15.15;;
41436;SDS011;27178;49.460;10.850;2024-03-02T01:31:14;16.30;;;14.60;;
41436;SDS011;27178;49.460;10.850;2024-03-02T01:33:44;17.00;;;14.90;;
41436;SDS011;27178;49.460;10.850;2024-03-02T01:36:12;16.60;;;14.88;;
41436;SDS011;27178;49.460;10.850;2024-03-02T01:38:41;14.90;;;13.32;;
41436;SDS011;27178;49.460;10.850;2024-03-02T01:41:09;16.88;;;15.07;;
41436;SDS011;27178;49.460;10.850;2024-03-02T01:43:38;17.50;;;14.70;;
41436;SDS011;27178;49.460;10.850;2024-03-02T01:46:07;17.98;;;14.77;;
41436;SDS011;27178;49.460;10.850;2024-03-02T01:48:35;15.90;;;14.30;;
41436;SDS011;27178;49.460;10.850;2024-03-02T01:51:05;18.08;;;15.52;;
41436;SDS011;27178;49.460;10.850;2024-03-02T01:53:34;14.68;;;13.18;;
41436;SDS011;27178;49.460;10.850;2024-03-02T01:56:03;16.60;;;15.00;;
41436;SDS011;27178;49.460;10.850;2024-03-02T01:58:31;16.27;;;14.45;;
41436;SDS011;27178;49.460;10.850;2024-03-02T02:01:00;15.32;;;13.82;;
41436;SDS011;27178;49.460;10.850;2024-03-02T02:03:28;16.38;;;14.63;;
41436;SDS011;27178;49.460;10.850;2024-03-02T02:05:57;15.93;;;14.32;;
41436;SDS011;27178;49.460;10.850;2024-03-02T02:08:26;15.90;;;14.15;;
41436;SDS011;27178;49.460;10.850;2024-03-02T02:10:55;14.98;;;13.50;;
41436;SDS011;27178;49.460;10.850;2024-03-02T02:13:23;15.98;;;14.15;;
41436;SDS011;27178;49.460;10.850;2024-03-02T02:15:51;16.95;;;15.15;;
41436;SDS011;27178;49.460;10.850;2024-03-02T02:18:20;15.82;;;14.23;;
41436;SDS011;27178;49.460;10.850;2024-03-02T02:20:48;14.68;;;13.15;;
41436;SDS011;27178;49.460;10.850;2024-03-02T02:23:17;15.80;;;14.20;;
41436;SDS011;27178;49.460;10.850;2024-03-02T02:25:46;14.68;;;13.18;;
41436;SDS011;27178;49.460;10.850;2024-03-02T02:28:14;14.88;;;13.35;;
41436;SDS011;27178;49.460;10.850;2024-03-02T02:30:44;15.80;;;14.13;;
41436;SDS011;27178;49.460;10.850;2024-03-02T02:33:12;16.13;;;14.52;;
41436;SDS011;27178;49.460;10.850;2024-03-02T02:35:40;15.18;;;13.73;;
41436;SDS011;27178;49.460;10.850;2024-03-02T02:38:09;15.25;;;13.65;;
41436;SDS011;27178;49.460;10.850;2024-03-02T02:40:39;15.43;;;13.80;;
41436;SDS011;27178;49.460;10.850;2024-03-02T02:43:07;15.40;;;13.90;;
41436;SDS011;27178;49.460;10.850;2024-03-02T02:45:35;15.43;;;13.25;;
41436;SDS011;27178;49.460;10.850;2024-03-02T02:48:04;15.15;;;13.70;;
41436;SDS011;27178;49.460;10.850;2024-03-02T02:50:33;14.80;;;13.32;;
41436;SDS011;27178;49.460;10.850;2024-03-02T02:53:02;15.27;;;13.73;;
41436;SDS011;27178;49.460;10.850;2024-03-02T02:55:30;15.63;;;14.02;;
41436;SDS011;27178;49.460;10.850;2024-03-02T02:58:00;15.05;;;13.55;;
41436;SDS011;27178;49.460;10.850;2024-03-02T03:00:28;14.98;;;13.57;;
41436;SDS011;27178;49.460;10.850;2024-03-02T03:02:57;14.57;;;13.20;;
41436;SDS011;27178;49.460;10.850;2024-03-02T03:05:25;13.60;;;12.20;;
41436;SDS011;27178;49.460;10.850;2024-03-02T03:07:54;14.38;;;12.98;;
41436;SDS011;27178;49.460;10.850;2024-03-02T03:10:22;13.60;;;12.30;;
41436;SDS011;27178;49.460;10.850;2024-03-02T03:12:52;14.02;;;12.63;;
41436;SDS011;27178;49.460;10.850;2024-03-02T03:15:24;13.20;;;11.93;;
41436;SDS011;27178;49.460;10.850;2024-03-02T03:17:52;13.82;;;12.43;;
41436;SDS011;27178;49.460;10.850;2024-03-02T03:20:21;13.55;;;12.25;;
41436;SDS011;27178;49.460;10.850;2024-03-02T03:22:50;13.63;;;12.27;;
41436;SDS011;27178;49.460;10.850;2024-03-02T03:25:21;13.13;;;11.75;;
41436;SDS011;27178;49.460;10.850;2024-03-02T03:27:49;12.88;;;11.57;;
41436;SDS011;27178;49.460;10.850;2024-03-02T03:30:19;16.63;;;12.70;;
41436;SDS011;27178;49.460;10.850;2024-03-02T03:32:49;12.93;;;11.48;;
41436;SDS011;27178;49.460;10.850;2024-03-02T03:35:17;12.38;;;11.07;;
41436;SDS011;27178;49.460;10.850;2024-03-02T03:37:45;14.43;;;13.02;;
41436;SDS011;27178;49.460;10.850;2024-03-02T03:40:14;12.77;;;11.48;;
41436;SDS011;27178;49.460;10.850;2024-03-02T03:46:23;12.13;;;11.02;;
41436;SDS011;27178;49.460;10.850;2024-03-02T03:48:53;11.95;;;10.75;;
41436;SDS011;27178;49.460;10.850;2024-03-02T03:51:22;12.45;;;11.18;;
41436;SDS011;27178;49.460;10.850;2024-03-02T03:53:51;12.10;;;10.90;;
41436;SDS011;27178;49.460;10.850;2024-03-02T03:56:19;13.70;;;12.50;;
41436;SDS011;27178;49.460;10.850;2024-03-02T03:58:47;12.32;;;11.15;;
41436;SDS011;27178;49.460;10.850;2024-03-02T04:01:15;12.30;;;11.10;;
41436;SDS011;27178;49.460;10.850;2024-03-02T04:03:44;12.47;;;11.27;;
41436;SDS011;27178;49.460;10.850;2024-03-02T04:06:13;11.70;;;10.60;;
41436;SDS011;27178;49.460;10.850;2024-03-02T04:08:43;11.32;;;10.23;;
41436;SDS011;27178;49.460;10.850;2024-03-02T04:11:12;10.93;;;9.93;;
41436;SDS011;27178;49.460;10.850;2024-03-02T04:13:40;11.20;;;10.20;;
41436;SDS011;27178;49.460;10.850;2024-03-02T04:16:08;10.73;;;9.82;;
41436;SDS011;27178;49.460;10.850;2024-03-02T04:18:37;10.17;;;9.27;;
41436;SDS011;27178;49.460;10.850;2024-03-02T04:21:06;11.75;;;10.57;;
41436;SDS011;27178;49.460;10.850;2024-03-02T04:23:36;10.48;;;9.50;;
41436;SDS011;27178;49.460;10.850;2024-03-02T04:26:04;10.10;;;9.20;;
41436;SDS011;27178;49.460;10.850;2024-03-02T04:28:32;12.05;;;10.88;;
41436;SDS011;27178;49.460;10.850;2024-03-02T04:31:00;11.80;;;10.70;;
41436;SDS011;27178;49.460;10.850;2024-03-02T04:33:29;11.05;;;9.95;;
41436;SDS011;27178;49.460;10.850;2024-03-02T04:35:57;11.07;;;10.00;;
41436;SDS011;27178;49.460;10.850;2024-03-02T04:38:25;10.57;;;9.63;;
41436;SDS011;27178;49.460;10.850;2024-03-02T04:40:56;11.07;;;9.90;;
41436;SDS011;27178;49.460;10.850;2024-03-02T04:43:25;11.20;;;10.10;;
41436;SDS011;27178;49.460;10.850;2024-03-02T04:45:53;10.70;;;9.70;;
41436;SDS011;27178;49.460;10.850;2024-03-02T04:48:21;11.38;;;10.35;;
41436;SDS011;27178;49.460;10.850;2024-03-02T04:50:50;11.10;;;10.10;;
41436;SDS011;27178;49.460;10.850;2024-03-02T04:53:18;10.93;;;9.93;;
41436;SDS011;27178;49.460;10.850;2024-03-02T04:55:47;10.50;;;9.60;;
41436;SDS011;27178;49.460;10.850;2024-03-02T04:58:34;10.33;;;9.33;;
41436;SDS011;27178;49.460;10.850;2024-03-02T05:01:03;11.03;;;10.00;;
41436;SDS011;27178;49.460;10.850;2024-03-02T05:03:31;11.43;;;10.45;;
41436;SDS011;27178;49.460;10.850;2024-03-02T05:06:01;11.20;;;10.05;;
41436;SDS011;27178;49.460;10.850;2024-03-02T05:08:29;11.85;;;10.75;;
41436;SDS011;27178;49.460;10.850;2024-03-02T05:10:58;10.88;;;9.88;;
41436;SDS011;27178;49.460;10.850;2024-03-02T05:13:47;11.20;;;10.15;;
41436;SDS011;27178;49.460;10.850;2024-03-02T05:16:15;9.85;;;8.98;;
41436;SDS011;27178;49.460;10.850;2024-03-02T05:18:43;11.05;;;9.98;;
41436;SDS011;27178;49.460;10.850;2024-03-02T05:21:11;11.27;;;10.23;;
41436;SDS011;27178;49.460;10.850;2024-03-02T05:23:40;11.10;;;10.10;;
41436;SDS011;27178;49.460;10.850;2024-03-02T05:26:08;11.55;;;10.50;;
41436;SDS011;27178;49.460;10.850;2024-03-02T05:28:39;10.95;;;10.00;;
41436;SDS011;27178;49.460;10.850;2024-03-02T05:31:10;11.32;;;10.32;;
41436;SDS011;27178;49.460;10.850;2024-03-02T05:33:38;9.95;;;9.05;;
41436;SDS011;27178;49.460;10.850;2024-03-02T05:36:07;10.80;;;9.80;;
41436;SDS011;27178;49.460;10.850;2024-03-02T05:38:36;12.95;;;11.65;;
41436;SDS011;27178;49.460;10.850;2024-03-02T05:41:04;10.90;;;9.90;;
41436;SDS011;27178;49.460;10.850;2024-03-02T05:43:32;10.23;;;9.02;;
41436;SDS011;27178;49.460;10.850;2024-03-02T05:46:00;10.77;;;9.85;;
41436;SDS011;27178;49.460;10.850;2024-03-02T05:48:32;10.18;;;9.32;;
41436;SDS011;27178;49.460;10.850;2024-03-02T05:51:00;10.70;;;9.80;;
41436;SDS011;27178;49.460;10.850;2024-03-02T05:53:32;10.43;;;9.43;;
41436;SDS011;27178;49.460;10.850;2024-03-02T05:56:01;12.05;;;10.38;;
41436;SDS011;27178;49.460;10.850;2024-03-02T05:58:31;10.68;;;9.68;;
41436;SDS011;27178;49.460;10.850;2024-03-02T06:01:12;11.18;;;10.07;;
41436;SDS011;27178;49.460;10.850;2024-03-02T06:03:42;9.70;;;8.80;;
41436;SDS011;27178;49.460;10.850;2024-03-02T06:06:11;10.43;;;9.43;;
41436;SDS011;27178;49.460;10.850;2024-03-02T06:08:39;10.18;;;9.27;;
41436;SDS011;27178;49.460;10.850;2024-03-02T06:11:07;16.85;;;14.60;;
41436;SDS011;27178;49.460;10.850;2024-03-02T06:13:35;21.55;;;19.38;;
41436;SDS011;27178;49.460;10.850;2024-03-02T06:16:04;18.47;;;16.63;;
41436;SDS011;27178;49.460;10.850;2024-03-02T06:18:33;16.97;;;15.17;;
41436;SDS011;27178;49.460;10.850;2024-03-02T06:21:03;15.20;;;13.68;;
41436;SDS011;27178;49.460;10.850;2024-03-02T06:23:31;15.55;;;13.95;;
41436;SDS011;27178;49.460;10.850;2024-03-02T06:26:01;13.23;;;11.93;;
41436;SDS011;27178;49.460;10.850;2024-03-02T06:28:29;11.80;;;10.60;;
41436;SDS011;27178;49.460;10.850;2024-03-02T06:30:58;11.57;;;10.48;;
41436;SDS011;27178;49.460;10.850;2024-03-02T06:33:26;11.82;;;10.73;;
41436;SDS011;27178;49.460;10.850;2024-03-02T06:35:55;11.30;;;10.30;;
41436;SDS011;27178;49.460;10.850;2024-03-02T06:38:24;12.05;;;10.95;;
41436;SDS011;27178;49.460;10.850;2024-03-02T06:40:53;11.98;;;10.80;;
41436;SDS011;27178;49.460;10.850;2024-03-02T06:43:22;12.25;;;11.15;;
41436;SDS011;27178;49.460;10.850;2024-03-02T06:45:50;12.10;;;11.00;;
41436;SDS011;27178;49.460;10.850;2024-03-02T06:48:19;12.85;;;11.57;;
41436;SDS011;27178;49.460;10.850;2024-03-02T06:50:47;13.27;;;11.98;;
41436;SDS011;27178;49.460;10.850;2024-03-02T06:53:16;10.80;;;9.80;;
41436;SDS011;27178;49.460;10.850;2024-03-02T06:55:47;11.75;;;10.65;;
41436;SDS011;27178;49.460;10.850;2024-03-02T06:58:16;11.50;;;10.40;;
41436;SDS011;27178;49.460;10.850;2024-03-02T07:00:44;12.10;;;10.95;;
41436;SDS011;27178;49.460;10.850;2024-03-02T07:03:12;10.68;;;9.57;;
41436;SDS011;27178;49.460;10.850;2024-03-02T07:05:40;12.52;;;11.43;;
41436;SDS011;27178;49.460;10.850;2024-03-02T07:08:09;11.00;;;10.00;;
41436;SDS011;27178;49.460;10.850;2024-03-02T07:10:37;10.63;;;9.57;;
41436;SDS011;27178;49.460;10.850;2024-03-02T07:13:07;11.02;;;10.02;;
41436;SDS011;27178;49.460;10.850;2024-03-02T07:15:35;10.18;;;9.18;;
41436;SDS011;27178;49.460;10.850;2024-03-02T07:18:32;9.85;;;8.95;;
41436;SDS011;27178;49.460;10.850;2024-03-02T07:21:03;10.38;;;9.20;;
41436;SDS011;27178;49.460;10.850;2024-03-02T07:23:32;10.20;;;9.27;;
41436;SDS011;27178;49.460;10.850;2024-03-02T07:26:00;9.35;;;8.45;;
41436;SDS011;27178;49.460;10.850;2024-03-02T07:28:33;10.38;;;9.48;;
41436;SDS011;27178;49.460;10.850;2024-03-02T07:31:03;8.88;;;8.07;;
41436;SDS011;27178;49.460;10.850;2024-03-02T07:33:31;10.35;;;9.45;;
41436;SDS011;27178;49.460;10.850;2024-03-02T07:36:01;9.60;;;8.73;;
41436;SDS011;27178;49.460;10.850;2024-03-02T07:38:30;9.85;;;8.85;;
41436;SDS011;27178;49.460;10.850;2024-03-02T07:41:00;9.48;;;8.60;;
41436;SDS011;27178;49.460;10.850;2024-03-02T07:43:29;10.30;;;9.40;;
41436;SDS011;27178;49.460;10.850;2024-03-02T07:45:59;10.25;;;9.25;;
41436;SDS011;27178;49.460;10.850;2024-03-02T07:48:29;9.63;;;8.73;;
41436;SDS011;27178;49.460;10.850;2024-03-02T07:50:58;9.38;;;8.57;;
41436;SDS011;27178;49.460;10.850;2024-03-02T07:53:28;9.45;;;8.60;;
41436;SDS011;27178;49.460;10.850;2024-03-02T07:55:56;9.23;;;8.32;;
41436;SDS011;27178;49.460;10.850;2024-03-02T07:58:29;10.40;;;9.40;;
41436;SDS011;27178;49.460;10.850;2024-03-02T08:00:59;9.93;;;9.02;;
41436;SDS011;27178;49.460;10.850;2024-03-02T08:03:28;10.18;;;9.23;;
41436;SDS011;27178;49.460;10.850;2024-03-02T08:05:58;10.05;;;9.15;;
41436;SDS011;27178;49.460;10.850;2024-03-02T08:08:27;8.90;;;8.10;;
41436;SDS011;27178;49.460;10.850;2024-03-02T08:10:56;10.50;;;9.50;;
41436;SDS011;27178;49.460;10.850;2024-03-02T08:13:27;10.77;;;9.77;;
41436;SDS011;27178;49.460;10.850;2024-03-02T08:15:55;9.88;;;8.98;;
41436;SDS011;27178;49.460;10.850;2024-03-02T08:18:25;10.40;;;9.40;;
41436;SDS011;27178;49.460;10.850;2024-03-02T08:20:53;10.70;;;9.70;;
41436;SDS011;27178;49.460;10.850;2024-03-02T08:23:22;9.90;;;9.00;;
41436;SDS011;27178;49.460;10.850;2024-03-02T08:25:50;9.50;;;8.70;;
41436;SDS011;27178;49.460;10.850;2024-03-02T08:28:19;9.40;;;8.60;;
41436;SDS011;27178;49.460;10.850;2024-03-02T08:30:47;10.43;;;9.50;;
41436;SDS011;27178;49.460;10.850;2024-03-02T08:33:15;9.70;;;8.80;;
41436;SDS011;27178;49.460;10.850;2024-03-02T08:35:45;9.93;;;9.02;;
41436;SDS011;27178;49.460;10.850;2024-03-02T08:38:13;9.90;;;9.00;;
41436;SDS011;27178;49.460;10.850;2024-03-02T08:40:41;9.73;;;8.80;;
41436;SDS011;27178;49.460;10.850;2024-03-02T08:43:10;12.35;;;8.80;;
41436;SDS011;27178;49.460;10.850;2024-03-02T08:45:38;9.30;;;8.50;;
41436;SDS011;27178;49.460;10.850;2024-03-02T08:48:07;8.32;;;7.53;;
41436;SDS011;27178;49.460;10.850;2024-03-02T08:50:36;8.40;;;7.70;;
41436;SDS011;27178;49.460;10.850;2024-03-02T08:53:06;8.57;;;7.55;;
41436;SDS011;27178;49.460;10.850;2024-03-02T08:55:34;8.23;;;7.43;;
41436;SDS011;27178;49.460;10.850;2024-03-02T08:58:02;9.57;;;7.78;;
41436;SDS011;27178;49.460;10.850;2024-03-02T09:00:31;7.90;;;7.15;;
41436;SDS011;27178;49.460;10.850;2024-03-02T09:03:00;8.30;;;7.60;;
41436;SDS011;27178;49.460;10.850;2024-03-02T09:05:28;8.55;;;7.75;;
41436;SDS011;27178;49.460;10.850;2024-03-02T09:07:56;8.23;;;7.43;;
41436;SDS011;27178;49.460;10.850;2024-03-02T09:10:26;8.35;;;7.65;;
41436;SDS011;27178;49.460;10.850;2024-03-02T09:12:54;7.88;;;7.18;;
41436;SDS011;27178;49.460;10.850;2024-03-02T09:15:23;7.85;;;7.15;;
41436;SDS011;27178;49.460;10.850;2024-03-02T09:17:51;8.38;;;7.57;;
41436;SDS011;27178;49.460;10.850;2024-03-02T09:20:19;8.02;;;7.13;;
41436;SDS011;27178;49.460;10.850;2024-03-02T09:22:47;7.75;;;7.05;;
41436;SDS011;27178;49.460;10.850;2024-03-02T09:25:15;7.63;;;6.95;;
41436;SDS011;27178;49.460;10.850;2024-03-02T09:27:45;6.88;;;6.18;;
41436;SDS011;27178;49.460;10.850;2024-03-02T09:30:13;7.45;;;6.78;;
41436;SDS011;27178;49.460;10.850;2024-03-02T09:32:42;7.25;;;6.65;;
41436;SDS011;27178;49.460;10.850;2024-03-02T09:35:13;7.57;;;6.88;;
41436;SDS011;27178;49.460;10.850;2024-03-02T09:37:41;7.53;;;6.90;;
41436;SDS011;27178;49.460;10.850;2024-03-02T09:40:10;7.30;;;6.68;;
41436;SDS011;27178;49.460;10.850;2024-03-02T09:42:38;7.28;;;6.68;;
41436;SDS011;27178;49.460;10.850;2024-03-02T09:45:09;7.75;;;7.05;;
41436;SDS011;27178;49.460;10.850;2024-03-02T09:47:37;7.18;;;6.55;;
41436;SDS011;27178;49.460;10.850;2024-03-02T09:50:06;7.78;;;7.07;;
41436;SDS011;27178;49.460;10.850;2024-03-02T09:52:35;7.80;;;7.10;;
41436;SDS011;27178;49.460;10.850;2024-03-02T09:55:05;8.05;;;7.30;;
41436;SDS011;27178;49.460;10.850;2024-03-02T09:57:34;8.40;;;7.60;;
41436;SDS011;27178;49.460;10.850;2024-03-02T10:00:07;7.63;;;6.93;;
41436;SDS011;27178;49.460;10.850;2024-03-02T10:02:41;8.40;;;7.60;;
41436;SDS011;27178;49.460;10.850;2024-03-02T10:05:09;8.20;;;7.40;;
41436;SDS011;27178;49.460;10.850;2024-03-02T10:07:38;8.27;;;7.47;;
41436;SDS011;27178;49.460;10.850;2024-03-02T10:10:15;8.20;;;7.57;;
41436;SDS011;27178;49.460;10.850;2024-03-02T10:12:45;8.02;;;7.32;;
41436;SDS011;27178;49.460;10.850;2024-03-02T10:15:15;8.43;;;7.63;;
41436;SDS011;27178;49.460;10.850;2024-03-02T10:17:51;8.15;;;7.45;;
41436;SDS011;27178;49.460;10.850;2024-03-02T10:20:23;8.63;;;7.82;;
41436;SDS011;27178;49.460;10.850;2024-03-02T10:22:52;8.48;;;7.60;;
41436;SDS011;27178;49.460;10.850;2024-03-02T10:25:29;7.95;;;7.15;;
41436;SDS011;27178;49.460;10.850;2024-03-02T10:28:16;7.07;;;6.47;;
41436;SDS011;27178;49.460;10.850;2024-03-02T10:30:47;7.47;;;6.78;;
41436;SDS011;27178;49.460;10.850;2024-03-02T10:33:17;7.00;;;6.40;;
41436;SDS011;27178;49.460;10.850;2024-03-02T10:35:46;6.90;;;6.30;;
41436;SDS011;27178;49.460;10.850;2024-03-02T10:38:17;7.38;;;6.68;;
41436;SDS011;27178;49.460;10.850;2024-03-02T10:40:46;7.10;;;6.50;;
41436;SDS011;27178;49.460;10.850;2024-03-02T10:43:15;8.27;;;6.57;;
41436;SDS011;27178;49.460;10.850;2024-03-02T10:45:46;7.65;;;7.00;;
41436;SDS011;27178;49.460;10.850;2024-03-02T10:48:17;7.18;;;6.63;;
41436;SDS011;27178;49.460;10.850;2024-03-02T10:50:45;6.85;;;6.25;;
41436;SDS011;27178;49.460;10.850;2024-03-02T10:53:14;7.60;;;6.93;;
41436;SDS011;27178;49.460;10.850;2024-03-02T10:55:42;7.22;;;6.63;;
41436;SDS011;27178;49.460;10.850;2024-03-02T10:58:11;6.80;;;6.20;;
41436;SDS011;27178;49.460;10.850;2024-03-02T11:00:42;6.90;;;6.30;;
41436;SDS011;27178;49.460;10.850;2024-03-02T11:03:15;6.63;;;6.03;;
41436;SDS011;27178;49.460;10.850;2024-03-02T11:05:44;6.75;;;6.15;;
41436;SDS011;27178;49.460;10.850;2024-03-02T11:08:13;7.45;;;6.75;;
41436;SDS011;27178;49.460;10.850;2024-03-02T11:10:48;7.80;;;7.10;;
41436;SDS011;27178;49.460;10.850;2024-03-02T11:13:20;7.32;;;6.72;;
41436;SDS011;27178;49.460;10.850;2024-03-02T11:15:52;7.75;;;7.05;;
41436;SDS011;27178;49.460;10.850;2024-03-02T11:18:25;8.00;;;7.30;;
41436;SDS011;27178;49.460;10.850;2024-03-02T11:20:54;7.82;;;7.03;;
41436;SDS011;27178;49.460;10.850;2024-03-02T11:23:31;8.40;;;7.60;;
41436;SDS011;27178;49.460;10.850;2024-03-02T11:26:19;7.55;;;6.85;;
41436;SDS011;27178;49.460;10.850;2024-03-02T11:28:48;7.38;;;6.78;;
41436;SDS011;27178;49.460;10.850;2024-03-02T11:31:17;7.53;;;6.78;;
41436;SDS011;27178;49.460;10.850;2024-03-02T11:33:47;7.75;;;7.05;;
41436;SDS011;27178;49.460;10.850;2024-03-02T11:36:15;7.07;;;6.45;;
41436;SDS011;27178;49.460;10.850;2024-03-02T11:38:44;7.10;;;6.50;;
41436;SDS011;27178;49.460;10.850;2024-03-02T11:41:13;7.13;;;6.53;;
41436;SDS011;27178;49.460;10.850;2024-03-02T11:43:42;6.68;;;6.07;;
41436;SDS011;27178;49.460;10.850;2024-03-02T11:46:11;7.10;;;6.40;;
41436;SDS011;27178;49.460;10.850;2024-03-02T11:48:43;6.95;;;6.25;;
41436;SDS011;27178;49.460;10.850;2024-03-02T11:51:12;6.82;;;6.22;;
41436;SDS011;27178;49.460;10.850;2024-03-02T11:53:41;6.43;;;5.82;;
41436;SDS011;27178;49.460;10.850;2024-03-02T11:56:10;6.70;;;6.00;;
41436;SDS011;27178;49.460;10.850;2024-03-02T11:58:41;5.72;;;5.22;;
41436;SDS011;27178;49.460;10.850;2024-03-02T12:01:10;6.07;;;5.50;;
41436;SDS011;27178;49.460;10.850;2024-03-02T12:03:40;6.97;;;6.38;;
41436;SDS011;27178;49.460;10.850;2024-03-02T12:06:08;6.97;;;5.45;;
41436;SDS011;27178;49.460;10.850;2024-03-02T12:08:38;6.18;;;5.68;;
41436;SDS011;27178;49.460;10.850;2024-03-02T12:11:08;6.43;;;5.82;;
41436;SDS011;27178;49.460;10.850;2024-03-02T12:13:51;6.15;;;5.63;;
41436;SDS011;27178;49.460;10.850;2024-03-02T12:16:22;7.03;;;6.28;;
41436;SDS011;27178;49.460;10.850;2024-03-02T12:18:52;9.20;;;8.40;;
41436;SDS011;27178;49.460;10.850;2024-03-02T12:21:21;7.30;;;6.70;;
41436;SDS011;27178;49.460;10.850;2024-03-02T12:23:51;8.48;;;7.68;;
41436;SDS011;27178;49.460;10.850;2024-03-02T12:26:19;10.02;;;9.13;;
41436;SDS011;27178;49.460;10.850;2024-03-02T12:28:51;8.75;;;8.05;;
41436;SDS011;27178;49.460;10.850;2024-03-02T12:31:19;10.00;;;9.15;;
41436;SDS011;27178;49.460;10.850;2024-03-02T12:33:47;10.65;;;9.75;;
41436;SDS011;27178;49.460;10.850;2024-03-02T12:36:16;9.43;;;8.63;;
41436;SDS011;27178;49.460;10.850;2024-03-02T12:38:45;10.30;;;9.40;;
41436;SDS011;27178;49.460;10.850;2024-03-02T12:41:16;9.88;;;8.98;;
41436;SDS011;27178;49.460;10.850;2024-03-02T12:43:44;10.00;;;9.10;;
41436;SDS011;27178;49.460;10.850;2024-03-02T12:46:14;10.85;;;9.88;;
41436;SDS011;27178;49.460;10.850;2024-03-02T12:48:42;10.55;;;9.65;;
41436;SDS011;27178;49.460;10.850;2024-03-02T12:51:10;11.52;;;10.45;;
41436;SDS011;27178;49.460;10.850;2024-03-02T12:53:39;12.40;;;11.10;;
41436;SDS011;27178;49.460;10.850;2024-03-02T12:56:07;11.48;;;10.40;;
41436;SDS011;27178;49.460;10.850;2024-03-02T12:58:40;11.43;;;10.43;;
41436;SDS011;27178;49.460;10.850;2024-03-02T13:01:09;12.70;;;11.50;;
41436;SDS011;27178;49.460;10.850;2024-03-02T13:03:38;13.30;;;11.13;;
41436;SDS011;27178;49.460;10.850;2024-03-02T13:06:06;11.25;;;10.15;;
41436;SDS011;27178;49.460;10.850;2024-03-02T13:08:35;11.30;;;10.30;;
41436;SDS011;27178;49.460;10.850;2024-03-02T13:11:03;12.60;;;11.40;;
41436;SDS011;27178;49.460;10.850;2024-03-02T13:13:33;11.25;;;10.25;;
41436;SDS011;27178;49.460;10.850;2024-03-02T13:16:04;12.20;;;10.75;;
41436;SDS011;27178;49.460;10.850;2024-03-02T13:18:35;12.65;;;11.45;;
41436;SDS011;27178;49.460;10.850;2024-03-02T13:21:04;12.18;;;11.05;;
41436;SDS011;27178;49.460;10.850;2024-03-02T13:23:32;11.95;;;10.75;;
41436;SDS011;27178;49.460;10.850;2024-03-02T13:26:01;12.45;;;11.25;;
41436;SDS011;27178;49.460;10.850;2024-03-02T13:28:30;13.30;;;12.02;;
41436;SDS011;27178;49.460;10.850;2024-03-02T13:30:58;13.98;;;12.55;;
41436;SDS011;27178;49.460;10.850;2024-03-02T13:33:28;13.00;;;11.70;;
41436;SDS011;27178;49.460;10.850;2024-03-02T13:35:57;12.60;;;11.30;;
41436;SDS011;27178;49.460;10.850;2024-03-02T13:38:26;12.20;;;11.10;;
41436;SDS011;27178;49.460;10.850;2024-03-02T13:40:54;14.13;;;12.82;;
41436;SDS011;27178;49.460;10.850;2024-03-02T13:43:22;12.63;;;11.43;;
41436;SDS011;27178;49.460;10.850;2024-03-02T13:45:51;13.60;;;12.20;;
41436;SDS011;27178;49.460;10.850;2024-03-02T13:48:20;13.77;;;12.38;;
41436;SDS011;27178;49.460;10.850;2024-03-02T13:50:50;11.55;;;10.50;;
41436;SDS011;27178;49.460;10.850;2024-03-02T13:53:18;13.10;;;11.85;;
41436;SDS011;27178;49.460;10.850;2024-03-02T13:55:47;12.45;;;11.18;;
41436;SDS011;27178;49.460;10.850;2024-03-02T13:58:16;11.55;;;10.45;;
41436;SDS011;27178;49.460;10.850;2024-03-02T14:00:45;10.88;;;9.88;;
41436;SDS011;27178;49.460;10.850;2024-03-02T14:03:13;11.60;;;10.50;;
41436;SDS011;27178;49.460;10.850;2024-03-02T14:05:43;11.10;;;10.00;;
41436;SDS011;27178;49.460;10.850;2024-03-02T14:08:14;9.55;;;8.63;;
41436;SDS011;27178;49.460;10.850;2024-03-02T14:10:42;10.35;;;9.27;;
41436;SDS011;27178;49.460;10.850;2024-03-02T14:13:10;10.23;;;9.20;;
41436;SDS011;27178;49.460;10.850;2024-03-02T14:15:39;9.73;;;8.82;;
41436;SDS011;27178;49.460;10.850;2024-03-02T14:18:07;9.88;;;8.98;;
41436;SDS011;27178;49.460;10.850;2024-03-02T14:20:37;10.20;;;9.20;;
41436;SDS011;27178;49.460;10.850;2024-03-02T14:23:07;10.25;;;9.35;;
41436;SDS011;27178;49.460;10.850;2024-03-02T14:25:38;10.48;;;9.57;;
41436;SDS011;27178;49.460;10.850;2024-03-02T14:28:07;11.18;;;10.15;;
41436;SDS011;27178;49.460;10.850;2024-03-02T14:30:56;10.57;;;9.68;;
41436;SDS011;27178;49.460;10.850;2024-03-02T14:33:27;12.00;;;10.80;;
41436;SDS011;27178;49.460;10.850;2024-03-02T14:35:56;10.07;;;9.18;;